sensor_id;sensor_type;location;lat;lon;timestamp;P1;durP1;ratioP1;P2;durP2;ratioP2
33190;SDS011;19554;42.652;23.364;2024-02-16T00:01:18;24.52;;;14.70;;
33190;SDS011;19554;42.652;23.364;2024-02-16T00:03:43;31.42;;;13.75;;
33190;SDS011;19554;42.652;23.364;2024-02-16T00:06:09;23.98;;;13.45;;
33190;SDS011;19554;42.652;23.364;2024-02-16T00:08:35;26.48;;;14.43;;
33190;SDS011;19554;42.652;23.364;2024-02-16T00:11:03;24.30;;;14.98;;
33190;SDS011;19554;42.652;23.364;2024-02-16T00:13:29;30.38;;;14.50;;
33190;SDS011;19554;42.652;23.364;2024-02-16T00:15:55;22.73;;;13.68;;
33190;SDS011;19554;42.652;23.364;2024-02-16T00:18:20;27.15;;;15.13;;
33190;SDS011;19554;42.652;23.364;2024-02-16T00:20:46;26.88;;;16.02;;
33190;SDS011;19554;42.652;23.364;2024-02-16T00:23:11;33.75;;;16.08;;
33190;SDS011;19554;42.652;23.364;2024-02-16T00:25:37;29.52;;;16.08;;
33190;SDS011;19554;42.652;23.364;2024-02-16T00:28:03;33.13;;;17.10;;
33190;SDS011;19554;42.652;23.364;2024-02-16T00:30:28;34.50;;;17.95;;
33190;SDS011;19554;42.652;23.364;2024-02-16T00:32:54;36.17;;;17.17;;
33190;SDS011;19554;42.652;23.364;2024-02-16T00:35:19;32.53;;;16.90;;
33190;SDS011;19554;42.652;23.364;2024-02-16T00:37:45;35.80;;;16.80;;
33190;SDS011;19554;42.652;23.364;2024-02-16T00:40:11;25.27;;;16.02;;
33190;SDS011;19554;42.652;23.364;2024-02-16T00:42:37;26.73;;;16.17;;
33190;SDS011;19554;42.652;23.364;2024-02-16T00:45:03;27.95;;;15.70;;
33190;SDS011;19554;42.652;23.364;2024-02-16T00:47:29;33.15;;;17.00;;
33190;SDS011;19554;42.652;23.364;2024-02-16T00:49:54;35.63;;;19.65;;
33190;SDS011;19554;42.652;23.364;2024-02-16T00:52:20;35.17;;;18.70;;
33190;SDS011;19554;42.652;23.364;2024-02-16T00:54:47;42.13;;;21.02;;
33190;SDS011;19554;42.652;23.364;2024-02-16T00:57:13;34.58;;;18.52;;
33190;SDS011;19554;42.652;23.364;2024-02-16T00:59:39;34.92;;;17.98;;
33190;SDS011;19554;42.652;23.364;2024-02-16T01:02:05;31.25;;;17.17;;
33190;SDS011;19554;42.652;23.364;2024-02-16T01:04:32;33.95;;;17.60;;
33190;SDS011;19554;42.652;23.364;2024-02-16T01:06:57;31.60;;;16.48;;
33190;SDS011;19554;42.652;23.364;2024-02-16T01:09:23;24.95;;;15.00;;
33190;SDS011;19554;42.652;23.364;2024-02-16T01:11:48;27.40;;;15.65;;
33190;SDS011;19554;42.652;23.364;2024-02-16T01:14:14;30.25;;;16.58;;
33190;SDS011;19554;42.652;23.364;2024-02-16T01:16:40;28.67;;;16.23;;
33190;SDS011;19554;42.652;23.364;2024-02-16T01:19:05;29.00;;;15.48;;
33190;SDS011;19554;42.652;23.364;2024-02-16T01:21:32;25.25;;;15.45;;
33190;SDS011;19554;42.652;23.364;2024-02-16T01:23:58;19.77;;;13.02;;
33190;SDS011;19554;42.652;23.364;2024-02-16T01:26:25;27.98;;;13.68;;
33190;SDS011;19554;42.652;23.364;2024-02-16T01:28:51;20.42;;;12.35;;
33190;SDS011;19554;42.652;23.364;2024-02-16T01:31:17;21.42;;;12.07;;
33190;SDS011;19554;42.652;23.364;2024-02-16T01:33:42;19.65;;;11.95;;
33190;SDS011;19554;42.652;23.364;2024-02-16T01:36:08;21.30;;;11.70;;
33190;SDS011;19554;42.652;23.364;2024-02-16T01:38:33;19.95;;;11.75;;
33190;SDS011;19554;42.652;23.364;2024-02-16T01:40:59;22.40;;;11.25;;
33190;SDS011;19554;42.652;23.364;2024-02-16T01:43:26;20.38;;;11.98;;
33190;SDS011;19554;42.652;23.364;2024-02-16T01:45:52;20.83;;;11.57;;
33190;SDS011;19554;42.652;23.364;2024-02-16T01:48:18;20.67;;;12.40;;
33190;SDS011;19554;42.652;23.364;2024-02-16T01:50:44;19.00;;;12.63;;
33190;SDS011;19554;42.652;23.364;2024-02-16T01:53:14;21.65;;;12.55;;
33190;SDS011;19554;42.652;23.364;2024-02-16T01:55:43;19.17;;;12.23;;
33190;SDS011;19554;42.652;23.364;2024-02-16T01:58:12;21.83;;;12.10;;
33190;SDS011;19554;42.652;23.364;2024-02-16T02:00:38;21.98;;;11.63;;
33190;SDS011;19554;42.652;23.364;2024-02-16T02:03:05;33.65;;;18.60;;
33190;SDS011;19554;42.652;23.364;2024-02-16T02:05:31;18.73;;;13.10;;
33190;SDS011;19554;42.652;23.364;2024-02-16T02:07:57;19.25;;;11.55;;
33190;SDS011;19554;42.652;23.364;2024-02-16T02:10:22;21.23;;;11.63;;
33190;SDS011;19554;42.652;23.364;2024-02-16T02:12:48;21.38;;;12.15;;
33190;SDS011;19554;42.652;23.364;2024-02-16T02:15:13;19.13;;;12.07;;
33190;SDS011;19554;42.652;23.364;2024-02-16T02:17:38;27.08;;;11.55;;
33190;SDS011;19554;42.652;23.364;2024-02-16T02:20:04;20.85;;;10.70;;
33190;SDS011;19554;42.652;23.364;2024-02-16T02:22:34;20.48;;;10.10;;
33190;SDS011;19554;42.652;23.364;2024-02-16T02:24:59;16.50;;;9.35;;
33190;SDS011;19554;42.652;23.364;2024-02-16T02:27:25;12.73;;;8.30;;
33190;SDS011;19554;42.652;23.364;2024-02-16T02:29:50;17.30;;;9.15;;
33190;SDS011;19554;42.652;23.364;2024-02-16T02:32:16;15.90;;;9.73;;
33190;SDS011;19554;42.652;23.364;2024-02-16T02:34:42;15.80;;;9.20;;
33190;SDS011;19554;42.652;23.364;2024-02-16T02:37:08;19.52;;;10.30;;
33190;SDS011;19554;42.652;23.364;2024-02-16T02:39:34;20.55;;;10.75;;
33190;SDS011;19554;42.652;23.364;2024-02-16T02:42:00;17.05;;;9.77;;
33190;SDS011;19554;42.652;23.364;2024-02-16T02:44:25;17.92;;;9.75;;
33190;SDS011;19554;42.652;23.364;2024-02-16T02:46:51;15.90;;;9.75;;
33190;SDS011;19554;42.652;23.364;2024-02-16T02:49:17;17.10;;;9.77;;
33190;SDS011;19554;42.652;23.364;2024-02-16T02:51:43;17.10;;;10.57;;
33190;SDS011;19554;42.652;23.364;2024-02-16T02:54:09;15.95;;;9.55;;
33190;SDS011;19554;42.652;23.364;2024-02-16T02:56:34;17.10;;;10.18;;
33190;SDS011;19554;42.652;23.364;2024-02-16T02:59:00;18.95;;;9.00;;
33190;SDS011;19554;42.652;23.364;2024-02-16T03:01:26;13.68;;;8.65;;
33190;SDS011;19554;42.652;23.364;2024-02-16T03:03:51;23.42;;;9.63;;
33190;SDS011;19554;42.652;23.364;2024-02-16T03:06:17;16.27;;;8.18;;
33190;SDS011;19554;42.652;23.364;2024-02-16T03:08:43;14.73;;;8.68;;
33190;SDS011;19554;42.652;23.364;2024-02-16T03:11:09;15.30;;;8.77;;
33190;SDS011;19554;42.652;23.364;2024-02-16T03:13:34;18.10;;;7.75;;
33190;SDS011;19554;42.652;23.364;2024-02-16T03:16:00;16.13;;;7.00;;
33190;SDS011;19554;42.652;23.364;2024-02-16T03:18:28;13.60;;;7.20;;
33190;SDS011;19554;42.652;23.364;2024-02-16T03:20:55;11.35;;;7.25;;
33190;SDS011;19554;42.652;23.364;2024-02-16T03:23:22;11.77;;;6.70;;
33190;SDS011;19554;42.652;23.364;2024-02-16T03:25:48;12.75;;;7.88;;
33190;SDS011;19554;42.652;23.364;2024-02-16T03:28:14;14.30;;;8.27;;
33190;SDS011;19554;42.652;23.364;2024-02-16T03:30:40;13.13;;;7.70;;
33190;SDS011;19554;42.652;23.364;2024-02-16T03:33:06;13.65;;;8.50;;
33190;SDS011;19554;42.652;23.364;2024-02-16T03:35:32;15.88;;;8.05;;
33190;SDS011;19554;42.652;23.364;2024-02-16T03:37:58;24.73;;;8.25;;
33190;SDS011;19554;42.652;23.364;2024-02-16T03:40:24;11.85;;;7.85;;
33190;SDS011;19554;42.652;23.364;2024-02-16T03:42:50;10.35;;;6.90;;
33190;SDS011;19554;42.652;23.364;2024-02-16T03:45:18;15.70;;;8.40;;
33190;SDS011;19554;42.652;23.364;2024-02-16T03:47:44;14.65;;;8.23;;
33190;SDS011;19554;42.652;23.364;2024-02-16T03:50:09;14.00;;;7.90;;
33190;SDS011;19554;42.652;23.364;2024-02-16T03:52:36;11.25;;;7.43;;
33190;SDS011;19554;42.652;23.364;2024-02-16T03:55:02;16.02;;;7.10;;
33190;SDS011;19554;42.652;23.364;2024-02-16T03:57:30;15.85;;;7.68;;
33190;SDS011;19554;42.652;23.364;2024-02-16T03:59:56;16.73;;;8.45;;
33190;SDS011;19554;42.652;23.364;2024-02-16T04:02:22;17.25;;;8.98;;
33190;SDS011;19554;42.652;23.364;2024-02-16T04:04:47;11.38;;;6.65;;
33190;SDS011;19554;42.652;23.364;2024-02-16T04:07:13;15.32;;;8.20;;
33190;SDS011;19554;42.652;23.364;2024-02-16T04:09:38;9.90;;;6.90;;
33190;SDS011;19554;42.652;23.364;2024-02-16T04:12:04;12.98;;;7.82;;
33190;SDS011;19554;42.652;23.364;2024-02-16T04:14:30;14.20;;;8.00;;
33190;SDS011;19554;42.652;23.364;2024-02-16T04:16:56;16.13;;;7.68;;
33190;SDS011;19554;42.652;23.364;2024-02-16T04:19:27;14.70;;;8.02;;
33190;SDS011;19554;42.652;23.364;2024-02-16T04:21:53;12.23;;;6.75;;
33190;SDS011;19554;42.652;23.364;2024-02-16T04:24:19;10.48;;;6.93;;
33190;SDS011;19554;42.652;23.364;2024-02-16T04:26:45;10.55;;;6.40;;
33190;SDS011;19554;42.652;23.364;2024-02-16T04:29:10;8.52;;;6.40;;
33190;SDS011;19554;42.652;23.364;2024-02-16T04:31:40;13.30;;;7.57;;
33190;SDS011;19554;42.652;23.364;2024-02-16T04:34:07;13.60;;;8.15;;
33190;SDS011;19554;42.652;23.364;2024-02-16T04:36:33;15.80;;;8.50;;
33190;SDS011;19554;42.652;23.364;2024-02-16T04:38:58;15.13;;;9.20;;
33190;SDS011;19554;42.652;23.364;2024-02-16T04:41:24;14.70;;;8.00;;
33190;SDS011;19554;42.652;23.364;2024-02-16T04:43:49;18.75;;;8.57;;
33190;SDS011;19554;42.652;23.364;2024-02-16T04:46:15;15.18;;;8.07;;
33190;SDS011;19554;42.652;23.364;2024-02-16T04:48:41;15.88;;;9.13;;
33190;SDS011;19554;42.652;23.364;2024-02-16T04:51:06;14.95;;;7.40;;
33190;SDS011;19554;42.652;23.364;2024-02-16T04:53:32;11.63;;;6.78;;
33190;SDS011;19554;42.652;23.364;2024-02-16T04:55:57;13.48;;;7.50;;
33190;SDS011;19554;42.652;23.364;2024-02-16T04:58:23;14.65;;;8.65;;
33190;SDS011;19554;42.652;23.364;2024-02-16T05:00:49;21.92;;;10.45;;
33190;SDS011;19554;42.652;23.364;2024-02-16T05:03:14;16.75;;;8.43;;
33190;SDS011;19554;42.652;23.364;2024-02-16T05:05:40;13.38;;;8.52;;
33190;SDS011;19554;42.652;23.364;2024-02-16T05:08:06;16.75;;;9.70;;
33190;SDS011;19554;42.652;23.364;2024-02-16T05:10:31;18.17;;;10.38;;
33190;SDS011;19554;42.652;23.364;2024-02-16T05:12:57;20.70;;;11.25;;
33190;SDS011;19554;42.652;23.364;2024-02-16T05:15:24;14.95;;;9.05;;
33190;SDS011;19554;42.652;23.364;2024-02-16T05:17:50;26.08;;;13.02;;
33190;SDS011;19554;42.652;23.364;2024-02-16T05:20:16;30.15;;;15.68;;
33190;SDS011;19554;42.652;23.364;2024-02-16T05:22:42;22.42;;;12.70;;
33190;SDS011;19554;42.652;23.364;2024-02-16T05:25:09;26.65;;;14.45;;
33190;SDS011;19554;42.652;23.364;2024-02-16T05:27:35;27.02;;;14.70;;
33190;SDS011;19554;42.652;23.364;2024-02-16T05:30:01;20.98;;;12.27;;
33190;SDS011;19554;42.652;23.364;2024-02-16T05:32:29;33.47;;;12.40;;
33190;SDS011;19554;42.652;23.364;2024-02-16T05:34:54;40.50;;;10.77;;
33190;SDS011;19554;42.652;23.364;2024-02-16T05:37:20;23.92;;;10.55;;
33190;SDS011;19554;42.652;23.364;2024-02-16T05:39:47;25.58;;;11.93;;
33190;SDS011;19554;42.652;23.364;2024-02-16T05:42:22;26.55;;;11.63;;
33190;SDS011;19554;42.652;23.364;2024-02-16T05:44:49;22.23;;;10.70;;
33190;SDS011;19554;42.652;23.364;2024-02-16T05:47:15;27.92;;;13.52;;
33190;SDS011;19554;42.652;23.364;2024-02-16T05:49:41;25.42;;;12.48;;
33190;SDS011;19554;42.652;23.364;2024-02-16T05:52:06;27.20;;;12.32;;
33190;SDS011;19554;42.652;23.364;2024-02-16T05:54:45;28.33;;;11.88;;
33190;SDS011;19554;42.652;23.364;2024-02-16T05:57:14;33.78;;;16.33;;
33190;SDS011;19554;42.652;23.364;2024-02-16T05:59:41;28.08;;;17.15;;
33190;SDS011;19554;42.652;23.364;2024-02-16T06:02:07;38.78;;;18.13;;
33190;SDS011;19554;42.652;23.364;2024-02-16T06:04:33;39.08;;;16.80;;
33190;SDS011;19554;42.652;23.364;2024-02-16T06:06:59;33.47;;;15.38;;
33190;SDS011;19554;42.652;23.364;2024-02-16T06:09:25;32.13;;;14.77;;
33190;SDS011;19554;42.652;23.364;2024-02-16T06:11:51;29.75;;;13.77;;
33190;SDS011;19554;42.652;23.364;2024-02-16T06:14:16;48.17;;;18.85;;
33190;SDS011;19554;42.652;23.364;2024-02-16T06:16:42;36.13;;;16.63;;
33190;SDS011;19554;42.652;23.364;2024-02-16T06:19:08;33.47;;;16.25;;
33190;SDS011;19554;42.652;23.364;2024-02-16T06:21:34;33.67;;;15.88;;
33190;SDS011;19554;42.652;23.364;2024-02-16T06:24:00;36.63;;;14.98;;
33190;SDS011;19554;42.652;23.364;2024-02-16T06:26:26;37.70;;;16.65;;
33190;SDS011;19554;42.652;23.364;2024-02-16T06:28:51;45.08;;;22.88;;
33190;SDS011;19554;42.652;23.364;2024-02-16T06:31:17;50.10;;;22.88;;
33190;SDS011;19554;42.652;23.364;2024-02-16T06:33:42;49.85;;;19.77;;
33190;SDS011;19554;42.652;23.364;2024-02-16T06:36:08;37.05;;;20.13;;
33190;SDS011;19554;42.652;23.364;2024-02-16T06:38:35;41.30;;;21.30;;
33190;SDS011;19554;42.652;23.364;2024-02-16T06:41:02;37.05;;;18.48;;
33190;SDS011;19554;42.652;23.364;2024-02-16T06:43:28;35.97;;;16.95;;
33190;SDS011;19554;42.652;23.364;2024-02-16T06:45:54;36.25;;;17.13;;
33190;SDS011;19554;42.652;23.364;2024-02-16T06:48:21;39.47;;;19.40;;
33190;SDS011;19554;42.652;23.364;2024-02-16T06:50:47;36.45;;;18.73;;
33190;SDS011;19554;42.652;23.364;2024-02-16T06:53:13;39.33;;;16.95;;
33190;SDS011;19554;42.652;23.364;2024-02-16T06:55:38;37.38;;;16.80;;
33190;SDS011;19554;42.652;23.364;2024-02-16T06:58:03;36.42;;;16.40;;
33190;SDS011;19554;42.652;23.364;2024-02-16T07:00:29;28.92;;;14.40;;
33190;SDS011;19554;42.652;23.364;2024-02-16T07:02:54;27.75;;;15.32;;
33190;SDS011;19554;42.652;23.364;2024-02-16T07:05:20;32.45;;;16.00;;
33190;SDS011;19554;42.652;23.364;2024-02-16T07:07:45;34.13;;;17.23;;
33190;SDS011;19554;42.652;23.364;2024-02-16T07:10:11;43.65;;;20.05;;
33190;SDS011;19554;42.652;23.364;2024-02-16T07:12:39;33.80;;;18.67;;
33190;SDS011;19554;42.652;23.364;2024-02-16T07:15:05;50.17;;;26.88;;
33190;SDS011;19554;42.652;23.364;2024-02-16T07:17:31;49.08;;;24.27;;
33190;SDS011;19554;42.652;23.364;2024-02-16T07:19:57;60.58;;;32.00;;
33190;SDS011;19554;42.652;23.364;2024-02-16T07:22:22;42.13;;;25.13;;
33190;SDS011;19554;42.652;23.364;2024-02-16T07:24:47;41.40;;;24.45;;
33190;SDS011;19554;42.652;23.364;2024-02-16T07:27:13;42.65;;;26.23;;
33190;SDS011;19554;42.652;23.364;2024-02-16T07:29:39;40.85;;;23.33;;
33190;SDS011;19554;42.652;23.364;2024-02-16T07:32:04;41.25;;;23.77;;
33190;SDS011;19554;42.652;23.364;2024-02-16T07:34:30;38.95;;;20.67;;
33190;SDS011;19554;42.652;23.364;2024-02-16T07:36:56;29.25;;;18.92;;
33190;SDS011;19554;42.652;23.364;2024-02-16T07:39:22;29.65;;;17.35;;
33190;SDS011;19554;42.652;23.364;2024-02-16T07:41:48;31.98;;;18.58;;
33190;SDS011;19554;42.652;23.364;2024-02-16T07:44:14;30.58;;;18.67;;
33190;SDS011;19554;42.652;23.364;2024-02-16T07:46:43;38.08;;;18.08;;
33190;SDS011;19554;42.652;23.364;2024-02-16T07:49:08;30.58;;;17.33;;
33190;SDS011;19554;42.652;23.364;2024-02-16T07:51:36;45.97;;;21.55;;
33190;SDS011;19554;42.652;23.364;2024-02-16T07:54:02;31.63;;;16.95;;
33190;SDS011;19554;42.652;23.364;2024-02-16T07:56:28;33.95;;;17.70;;
33190;SDS011;19554;42.652;23.364;2024-02-16T07:58:55;35.15;;;17.00;;
33190;SDS011;19554;42.652;23.364;2024-02-16T08:01:21;30.70;;;16.75;;
33190;SDS011;19554;42.652;23.364;2024-02-16T08:03:46;30.67;;;17.67;;
33190;SDS011;19554;42.652;23.364;2024-02-16T08:06:13;39.53;;;17.20;;
33190;SDS011;19554;42.652;23.364;2024-02-16T08:08:39;36.08;;;20.40;;
33190;SDS011;19554;42.652;23.364;2024-02-16T08:11:04;37.08;;;18.20;;
33190;SDS011;19554;42.652;23.364;2024-02-16T08:13:30;44.67;;;20.90;;
33190;SDS011;19554;42.652;23.364;2024-02-16T08:15:55;35.33;;;21.23;;
33190;SDS011;19554;42.652;23.364;2024-02-16T08:18:21;39.97;;;17.33;;
33190;SDS011;19554;42.652;23.364;2024-02-16T08:20:47;29.75;;;18.58;;
33190;SDS011;19554;42.652;23.364;2024-02-16T08:23:12;39.25;;;17.15;;
33190;SDS011;19554;42.652;23.364;2024-02-16T08:25:38;30.25;;;17.77;;
33190;SDS011;19554;42.652;23.364;2024-02-16T08:28:03;32.88;;;16.83;;
33190;SDS011;19554;42.652;23.364;2024-02-16T08:30:30;31.05;;;18.05;;
33190;SDS011;19554;42.652;23.364;2024-02-16T08:32:55;26.67;;;16.20;;
33190;SDS011;19554;42.652;23.364;2024-02-16T08:35:21;31.77;;;16.92;;
33190;SDS011;19554;42.652;23.364;2024-02-16T08:37:46;30.27;;;17.40;;
33190;SDS011;19554;42.652;23.364;2024-02-16T08:40:12;31.08;;;16.42;;
33190;SDS011;19554;42.652;23.364;2024-02-16T08:42:41;26.17;;;15.93;;
33190;SDS011;19554;42.652;23.364;2024-02-16T08:45:09;28.20;;;16.90;;
33190;SDS011;19554;42.652;23.364;2024-02-16T08:47:37;27.73;;;14.93;;
33190;SDS011;19554;42.652;23.364;2024-02-16T08:50:04;31.67;;;18.42;;
33190;SDS011;19554;42.652;23.364;2024-02-16T08:52:29;33.17;;;17.98;;
33190;SDS011;19554;42.652;23.364;2024-02-16T08:54:56;39.22;;;18.52;;
33190;SDS011;19554;42.652;23.364;2024-02-16T08:57:22;37.55;;;17.13;;
33190;SDS011;19554;42.652;23.364;2024-02-16T08:59:47;31.83;;;16.02;;
33190;SDS011;19554;42.652;23.364;2024-02-16T09:02:12;29.40;;;17.33;;
33190;SDS011;19554;42.652;23.364;2024-02-16T09:04:38;34.97;;;16.88;;
33190;SDS011;19554;42.652;23.364;2024-02-16T09:07:03;45.08;;;20.25;;
33190;SDS011;19554;42.652;23.364;2024-02-16T09:09:29;34.13;;;18.48;;
33190;SDS011;19554;42.652;23.364;2024-02-16T09:11:55;32.58;;;18.33;;
33190;SDS011;19554;42.652;23.364;2024-02-16T09:14:20;42.67;;;20.90;;
33190;SDS011;19554;42.652;23.364;2024-02-16T09:16:48;30.85;;;18.65;;
33190;SDS011;19554;42.652;23.364;2024-02-16T09:19:16;34.25;;;18.52;;
33190;SDS011;19554;42.652;23.364;2024-02-16T09:21:42;42.03;;;20.13;;
33190;SDS011;19554;42.652;23.364;2024-02-16T09:24:07;44.97;;;20.48;;
33190;SDS011;19554;42.652;23.364;2024-02-16T09:26:35;36.33;;;20.15;;
33190;SDS011;19554;42.652;23.364;2024-02-16T09:29:02;30.33;;;17.10;;
33190;SDS011;19554;42.652;23.364;2024-02-16T09:31:27;27.73;;;16.95;;
33190;SDS011;19554;42.652;23.364;2024-02-16T09:33:53;26.83;;;14.23;;
33190;SDS011;19554;42.652;23.364;2024-02-16T09:36:19;21.00;;;11.52;;
33190;SDS011;19554;42.652;23.364;2024-02-16T09:38:44;21.13;;;11.38;;
33190;SDS011;19554;42.652;23.364;2024-02-16T09:41:10;14.82;;;9.13;;
33190;SDS011;19554;42.652;23.364;2024-02-16T09:43:35;20.02;;;12.35;;
33190;SDS011;19554;42.652;23.364;2024-02-16T09:46:04;22.58;;;13.23;;
33190;SDS011;19554;42.652;23.364;2024-02-16T09:48:30;15.10;;;9.75;;
33190;SDS011;19554;42.652;23.364;2024-02-16T09:50:56;13.57;;;9.15;;
33190;SDS011;19554;42.652;23.364;2024-02-16T09:53:24;13.20;;;6.75;;
33190;SDS011;19554;42.652;23.364;2024-02-16T09:55:51;12.52;;;8.43;;
33190;SDS011;19554;42.652;23.364;2024-02-16T09:58:18;12.45;;;8.25;;
33190;SDS011;19554;42.652;23.364;2024-02-16T10:00:54;12.07;;;8.10;;
33190;SDS011;19554;42.652;23.364;2024-02-16T10:03:31;17.38;;;9.82;;
33190;SDS011;19554;42.652;23.364;2024-02-16T10:08:33;12.80;;;7.95;;
33190;SDS011;19554;42.652;23.364;2024-02-16T10:11:03;13.20;;;8.82;;
33190;SDS011;19554;42.652;23.364;2024-02-16T10:13:30;13.77;;;8.43;;
33190;SDS011;19554;42.652;23.364;2024-02-16T10:16:06;11.30;;;8.20;;
33190;SDS011;19554;42.652;23.364;2024-02-16T10:18:37;11.50;;;8.10;;
33190;SDS011;19554;42.652;23.364;2024-02-16T10:21:03;9.18;;;6.72;;
33190;SDS011;19554;42.652;23.364;2024-02-16T10:23:29;9.65;;;4.68;;
33190;SDS011;19554;42.652;23.364;2024-02-16T10:25:55;9.27;;;4.90;;
33190;SDS011;19554;42.652;23.364;2024-02-16T10:28:20;9.73;;;6.40;;
33190;SDS011;19554;42.652;23.364;2024-02-16T10:30:52;11.73;;;6.80;;
33190;SDS011;19554;42.652;23.364;2024-02-16T10:33:24;10.80;;;6.43;;
33190;SDS011;19554;42.652;23.364;2024-02-16T10:35:50;7.43;;;5.50;;
33190;SDS011;19554;42.652;23.364;2024-02-16T10:38:17;6.10;;;4.63;;
33190;SDS011;19554;42.652;23.364;2024-02-16T10:40:45;114.00;;;32.03;;
33190;SDS011;19554;42.652;23.364;2024-02-16T10:43:13;7.40;;;4.82;;
33190;SDS011;19554;42.652;23.364;2024-02-16T10:45:40;8.07;;;5.28;;
33190;SDS011;19554;42.652;23.364;2024-02-16T10:48:06;12.65;;;7.55;;
33190;SDS011;19554;42.652;23.364;2024-02-16T10:50:35;15.20;;;8.63;;
33190;SDS011;19554;42.652;23.364;2024-02-16T10:53:13;14.25;;;8.93;;
33190;SDS011;19554;42.652;23.364;2024-02-16T10:55:43;38.38;;;15.80;;
33190;SDS011;19554;42.652;23.364;2024-02-16T10:58:12;12.18;;;6.72;;
33190;SDS011;19554;42.652;23.364;2024-02-16T11:00:48;7.93;;;5.72;;
33190;SDS011;19554;42.652;23.364;2024-02-16T11:03:17;60.65;;;25.15;;
33190;SDS011;19554;42.652;23.364;2024-02-16T11:05:48;17.25;;;9.15;;
33190;SDS011;19554;42.652;23.364;2024-02-16T11:08:15;13.77;;;8.20;;
33190;SDS011;19554;42.652;23.364;2024-02-16T11:11:01;19.73;;;9.88;;
33190;SDS011;19554;42.652;23.364;2024-02-16T11:13:31;35.92;;;14.80;;
33190;SDS011;19554;42.652;23.364;2024-02-16T11:15:58;18.17;;;9.73;;
33190;SDS011;19554;42.652;23.364;2024-02-16T11:18:26;22.98;;;9.50;;
33190;SDS011;19554;42.652;23.364;2024-02-16T11:20:55;10.80;;;6.97;;
33190;SDS011;19554;42.652;23.364;2024-02-16T11:23:27;17.60;;;7.65;;
33190;SDS011;19554;42.652;23.364;2024-02-16T11:25:54;10.23;;;6.40;;
33190;SDS011;19554;42.652;23.364;2024-02-16T11:28:25;14.27;;;7.57;;
33190;SDS011;19554;42.652;23.364;2024-02-16T11:30:52;17.13;;;7.30;;
33190;SDS011;19554;42.652;23.364;2024-02-16T11:33:17;11.30;;;7.35;;
33190;SDS011;19554;42.652;23.364;2024-02-16T11:35:51;11.30;;;6.82;;
33190;SDS011;19554;42.652;23.364;2024-02-16T11:38:18;18.40;;;8.98;;
33190;SDS011;19554;42.652;23.364;2024-02-16T11:40:52;10.10;;;6.90;;
33190;SDS011;19554;42.652;23.364;2024-02-16T11:43:24;10.95;;;6.47;;
33190;SDS011;19554;42.652;23.364;2024-02-16T11:45:50;10.52;;;6.80;;
33190;SDS011;19554;42.652;23.364;2024-02-16T11:48:22;13.52;;;7.13;;
33190;SDS011;19554;42.652;23.364;2024-02-16T11:50:57;9.43;;;6.72;;
33190;SDS011;19554;42.652;23.364;2024-02-16T11:53:24;11.88;;;6.78;;
33190;SDS011;19554;42.652;23.364;2024-02-16T11:55:50;10.05;;;6.43;;
33190;SDS011;19554;42.652;23.364;2024-02-16T11:58:16;11.88;;;7.20;;
33190;SDS011;19554;42.652;23.364;2024-02-16T12:00:43;7.30;;;5.28;;
33190;SDS011;19554;42.652;23.364;2024-02-16T12:03:22;7.95;;;6.15;;
33190;SDS011;19554;42.652;23.364;2024-02-16T12:05:53;15.15;;;6.05;;
33190;SDS011;19554;42.652;23.364;2024-02-16T12:08:19;9.43;;;5.45;;
33190;SDS011;19554;42.652;23.364;2024-02-16T12:10:49;8.00;;;6.13;;
33190;SDS011;19554;42.652;23.364;2024-02-16T12:13:17;8.88;;;6.20;;
33190;SDS011;19554;42.652;23.364;2024-02-16T12:15:47;9.15;;;6.20;;
33190;SDS011;19554;42.652;23.364;2024-02-16T12:18:22;10.75;;;6.53;;
33190;SDS011;19554;42.652;23.364;2024-02-16T12:20:58;9.85;;;6.55;;
33190;SDS011;19554;42.652;23.364;2024-02-16T12:23:31;10.65;;;6.80;;
33190;SDS011;19554;42.652;23.364;2024-02-16T12:26:00;11.43;;;6.40;;
33190;SDS011;19554;42.652;23.364;2024-02-16T12:28:27;9.20;;;6.60;;
33190;SDS011;19554;42.652;23.364;2024-02-16T12:30:54;9.40;;;6.25;;
33190;SDS011;19554;42.652;23.364;2024-02-16T12:33:21;14.23;;;8.02;;
33190;SDS011;19554;42.652;23.364;2024-02-16T12:35:49;10.63;;;7.15;;
33190;SDS011;19554;42.652;23.364;2024-02-16T12:38:15;14.68;;;6.93;;
33190;SDS011;19554;42.652;23.364;2024-02-16T12:40:47;11.32;;;7.13;;
33190;SDS011;19554;42.652;23.364;2024-02-16T12:43:13;13.07;;;7.32;;
33190;SDS011;19554;42.652;23.364;2024-02-16T12:45:39;10.60;;;7.13;;
33190;SDS011;19554;42.652;23.364;2024-02-16T12:48:06;9.93;;;6.68;;
33190;SDS011;19554;42.652;23.364;2024-02-16T12:50:32;10.80;;;6.38;;
33190;SDS011;19554;42.652;23.364;2024-02-16T12:52:57;14.18;;;7.28;;
33190;SDS011;19554;42.652;23.364;2024-02-16T12:55:23;9.27;;;6.78;;
33190;SDS011;19554;42.652;23.364;2024-02-16T12:57:49;14.05;;;6.68;;
33190;SDS011;19554;42.652;23.364;2024-02-16T13:00:18;10.02;;;6.63;;
33190;SDS011;19554;42.652;23.364;2024-02-16T13:02:44;11.45;;;7.32;;
33190;SDS011;19554;42.652;23.364;2024-02-16T13:05:10;12.70;;;7.57;;
33190;SDS011;19554;42.652;23.364;2024-02-16T13:07:36;10.95;;;6.88;;
33190;SDS011;19554;42.652;23.364;2024-02-16T13:10:06;7.60;;;6.80;;
33190;SDS011;19554;42.652;23.364;2024-02-16T13:12:33;9.40;;;6.50;;
33190;SDS011;19554;42.652;23.364;2024-02-16T13:14:58;12.70;;;7.05;;
33190;SDS011;19554;42.652;23.364;2024-02-16T13:17:24;13.15;;;7.25;;
33190;SDS011;19554;42.652;23.364;2024-02-16T13:19:51;11.55;;;7.20;;
33190;SDS011;19554;42.652;23.364;2024-02-16T13:22:17;11.60;;;7.00;;
33190;SDS011;19554;42.652;23.364;2024-02-16T13:24:43;10.90;;;7.68;;
33190;SDS011;19554;42.652;23.364;2024-02-16T13:27:08;11.00;;;6.90;;
33190;SDS011;19554;42.652;23.364;2024-02-16T13:29:34;12.38;;;7.78;;
33190;SDS011;19554;42.652;23.364;2024-02-16T13:32:00;12.73;;;8.40;;
33190;SDS011;19554;42.652;23.364;2024-02-16T13:34:26;11.27;;;7.60;;
33190;SDS011;19554;42.652;23.364;2024-02-16T13:36:52;18.55;;;9.75;;
33190;SDS011;19554;42.652;23.364;2024-02-16T13:39:18;11.98;;;7.85;;
33190;SDS011;19554;42.652;23.364;2024-02-16T13:41:44;9.55;;;7.15;;
33190;SDS011;19554;42.652;23.364;2024-02-16T13:44:12;13.05;;;8.13;;
33190;SDS011;19554;42.652;23.364;2024-02-16T13:46:38;15.45;;;7.40;;
33190;SDS011;19554;42.652;23.364;2024-02-16T13:49:03;17.08;;;9.73;;
33190;SDS011;19554;42.652;23.364;2024-02-16T13:51:29;11.32;;;7.30;;
33190;SDS011;19554;42.652;23.364;2024-02-16T13:53:54;9.60;;;7.05;;
33190;SDS011;19554;42.652;23.364;2024-02-16T13:56:20;9.40;;;6.30;;
33190;SDS011;19554;42.652;23.364;2024-02-16T13:58:45;13.05;;;6.60;;
33190;SDS011;19554;42.652;23.364;2024-02-16T14:01:12;11.50;;;6.40;;
33190;SDS011;19554;42.652;23.364;2024-02-16T14:03:38;11.25;;;7.03;;
33190;SDS011;19554;42.652;23.364;2024-02-16T14:06:04;10.13;;;6.43;;
33190;SDS011;19554;42.652;23.364;2024-02-16T14:08:31;10.23;;;6.65;;
33190;SDS011;19554;42.652;23.364;2024-02-16T14:10:56;11.07;;;6.55;;
33190;SDS011;19554;42.652;23.364;2024-02-16T14:13:21;12.00;;;6.80;;
33190;SDS011;19554;42.652;23.364;2024-02-16T14:15:49;11.65;;;6.80;;